sensor_id;sensor_type;location;lat;lon;timestamp;temperature;humidity
10278;DHT22;5184;51.376;7.148;2023-07-20T00:01:00;15.70;99.90
10278;DHT22;5184;51.376;7.148;2023-07-20T00:03:26;15.70;99.90
10278;DHT22;5184;51.376;7.148;2023-07-20T00:05:54;15.80;99.90
10278;DHT22;5184;51.376;7.148;2023-07-20T00:08:21;15.70;99.90
10278;DHT22;5184;51.376;7.148;2023-07-20T00:10:48;15.70;99.90
10278;DHT22;5184;51.376;7.148;2023-07-20T00:13:14;15.70;99.90
10278;DHT22;5184;51.376;7.148;2023-07-20T00:15:41;15.70;99.90
10278;DHT22;5184;51.376;7.148;2023-07-20T00:18:07;15.70;99.90
10278;DHT22;5184;51.376;7.148;2023-07-20T00:20:34;15.70;99.90
10278;DHT22;5184;51.376;7.148;2023-07-20T00:23:01;15.60;99.90
10278;DHT22;5184;51.376;7.148;2023-07-20T00:25:29;15.60;99.90
10278;DHT22;5184;51.376;7.148;2023-07-20T00:27:55;15.60;99.90
10278;DHT22;5184;51.376;7.148;2023-07-20T00:30:22;15.60;99.90
10278;DHT22;5184;51.376;7.148;2023-07-20T00:32:48;15.60;99.90
10278;DHT22;5184;51.376;7.148;2023-07-20T00:35:15;15.60;99.90
10278;DHT22;5184;51.376;7.148;2023-07-20T00:37:42;15.60;99.90
10278;DHT22;5184;51.376;7.148;2023-07-20T00:40:09;15.50;99.90
10278;DHT22;5184;51.376;7.148;2023-07-20T00:42:36;15.40;99.90
10278;DHT22;5184;51.376;7.148;2023-07-20T00:45:04;15.40;99.90
10278;DHT22;5184;51.376;7.148;2023-07-20T00:47:31;15.30;99.90
10278;DHT22;5184;51.376;7.148;2023-07-20T00:49:58;15.30;99.90
10278;DHT22;5184;51.376;7.148;2023-07-20T00:52:24;15.30;99.90
10278;DHT22;5184;51.376;7.148;2023-07-20T00:54:51;15.30;99.90
10278;DHT22;5184;51.376;7.148;2023-07-20T00:57:18;15.20;99.90
10278;DHT22;5184;51.376;7.148;2023-07-20T00:59:46;15.20;99.90
10278;DHT22;5184;51.376;7.148;2023-07-20T01:02:13;15.20;99.90
10278;DHT22;5184;51.376;7.148;2023-07-20T01:04:41;15.10;99.90
10278;DHT22;5184;51.376;7.148;2023-07-20T01:07:25;15.10;99.90
10278;DHT22;5184;51.376;7.148;2023-07-20T01:09:58;15.10;99.90
10278;DHT22;5184;51.376;7.148;2023-07-20T01:12:41;15.20;99.90
10278;DHT22;5184;51.376;7.148;2023-07-20T01:15:08;15.10;99.90
10278;DHT22;5184;51.376;7.148;2023-07-20T01:17:35;15.20;99.90
10278;DHT22;5184;51.376;7.148;2023-07-20T01:20:01;15.20;99.90
10278;DHT22;5184;51.376;7.148;2023-07-20T01:22:48;15.20;99.90
10278;DHT22;5184;51.376;7.148;2023-07-20T01:27:56;15.20;99.90
10278;DHT22;5184;51.376;7.148;2023-07-20T01:33:04;15.10;99.90
10278;DHT22;5184;51.376;7.148;2023-07-20T01:35:30;15.10;99.90
10278;DHT22;5184;51.376;7.148;2023-07-20T01:37:57;15.10;99.90
10278;DHT22;5184;51.376;7.148;2023-07-20T01:40:25;15.10;99.90
10278;DHT22;5184;51.376;7.148;2023-07-20T01:42:52;15.10;99.90
10278;DHT22;5184;51.376;7.148;2023-07-20T01:45:18;15.00;99.90
10278;DHT22;5184;51.376;7.148;2023-07-20T01:47:45;15.00;99.90
10278;DHT22;5184;51.376;7.148;2023-07-20T01:50:11;15.00;99.90
10278;DHT22;5184;51.376;7.148;2023-07-20T01:52:38;15.00;99.90
10278;DHT22;5184;51.376;7.148;2023-07-20T01:55:06;15.00;99.90
10278;DHT22;5184;51.376;7.148;2023-07-20T01:57:32;14.90;99.90
10278;DHT22;5184;51.376;7.148;2023-07-20T01:59:59;15.00;99.90
10278;DHT22;5184;51.376;7.148;2023-07-20T02:02:26;15.00;99.90
10278;DHT22;5184;51.376;7.148;2023-07-20T02:04:53;15.00;99.90
10278;DHT22;5184;51.376;7.148;2023-07-20T02:07:20;15.00;99.90
10278;DHT22;5184;51.376;7.148;2023-07-20T02:09:46;15.00;99.90
10278;DHT22;5184;51.376;7.148;2023-07-20T02:12:13;15.00;99.90
10278;DHT22;5184;51.376;7.148;2023-07-20T02:14:40;15.10;99.90
10278;DHT22;5184;51.376;7.148;2023-07-20T02:17:07;15.10;99.90
10278;DHT22;5184;51.376;7.148;2023-07-20T02:19:34;15.00;99.90
10278;DHT22;5184;51.376;7.148;2023-07-20T02:22:01;15.00;99.90
10278;DHT22;5184;51.376;7.148;2023-07-20T02:24:28;15.10;99.90
10278;DHT22;5184;51.376;7.148;2023-07-20T02:26:54;15.10;99.90
10278;DHT22;5184;51.376;7.148;2023-07-20T02:29:22;15.10;99.90
10278;DHT22;5184;51.376;7.148;2023-07-20T02:31:48;15.10;99.90
10278;DHT22;5184;51.376;7.148;2023-07-20T02:34:15;15.10;99.90
10278;DHT22;5184;51.376;7.148;2023-07-20T02:36:41;15.10;99.90
10278;DHT22;5184;51.376;7.148;2023-07-20T02:39:09;15.10;99.90
10278;DHT22;5184;51.376;7.148;2023-07-20T02:41:35;15.00;99.90
10278;DHT22;5184;51.376;7.148;2023-07-20T02:44:02;15.10;99.90
10278;DHT22;5184;51.376;7.148;2023-07-20T02:46:29;15.10;99.90
10278;DHT22;5184;51.376;7.148;2023-07-20T02:48:56;15.00;99.90
10278;DHT22;5184;51.376;7.148;2023-07-20T02:51:23;15.00;99.90
10278;DHT22;5184;51.376;7.148;2023-07-20T02:53:50;15.00;99.90
10278;DHT22;5184;51.376;7.148;2023-07-20T02:56:17;15.10;99.90
10278;DHT22;5184;51.376;7.148;2023-07-20T02:58:43;15.10;99.90
10278;DHT22;5184;51.376;7.148;2023-07-20T03:01:11;15.10;99.90
10278;DHT22;5184;51.376;7.148;2023-07-20T03:03:38;15.00;99.90
10278;DHT22;5184;51.376;7.148;2023-07-20T03:06:05;15.00;99.90
10278;DHT22;5184;51.376;7.148;2023-07-20T03:08:31;15.00;99.90
10278;DHT22;5184;51.376;7.148;2023-07-20T03:10:58;15.00;99.90
10278;DHT22;5184;51.376;7.148;2023-07-20T03:13:25;15.00;99.90
10278;DHT22;5184;51.376;7.148;2023-07-20T03:15:53;15.00;99.90
10278;DHT22;5184;51.376;7.148;2023-07-20T03:18:19;15.00;99.90
10278;DHT22;5184;51.376;7.148;2023-07-20T03:20:46;15.00;99.90
10278;DHT22;5184;51.376;7.148;2023-07-20T03:23:12;15.00;99.90
10278;DHT22;5184;51.376;7.148;2023-07-20T03:25:40;15.00;99.90
10278;DHT22;5184;51.376;7.148;2023-07-20T03:28:07;14.90;99.90
10278;DHT22;5184;51.376;7.148;2023-07-20T03:30:34;14.90;99.90
10278;DHT22;5184;51.376;7.148;2023-07-20T03:33:01;14.90;99.90
10278;DHT22;5184;51.376;7.148;2023-07-20T03:35:28;14.90;99.90
10278;DHT22;5184;51.376;7.148;2023-07-20T03:37:56;14.90;99.90
10278;DHT22;5184;51.376;7.148;2023-07-20T03:40:22;14.90;99.90
10278;DHT22;5184;51.376;7.148;2023-07-20T03:42:49;14.80;99.90
10278;DHT22;5184;51.376;7.148;2023-07-20T03:45:15;14.80;99.90
10278;DHT22;5184;51.376;7.148;2023-07-20T03:47:42;14.80;99.90
10278;DHT22;5184;51.376;7.148;2023-07-20T03:50:09;14.80;99.90
10278;DHT22;5184;51.376;7.148;2023-07-20T03:52:35;14.80;99.90
10278;DHT22;5184;51.376;7.148;2023-07-20T03:55:02;14.80;99.90
10278;DHT22;5184;51.376;7.148;2023-07-20T03:57:29;15.10;99.90
10278;DHT22;5184;51.376;7.148;2023-07-20T03:59:55;14.80;99.90
10278;DHT22;5184;51.376;7.148;2023-07-20T04:02:22;14.90;99.90
10278;DHT22;5184;51.376;7.148;2023-07-20T04:04:48;14.90;99.90
10278;DHT22;5184;51.376;7.148;2023-07-20T04:07:16;17.10;99.90
10278;DHT22;5184;51.376;7.148;2023-07-20T04:09:43;14.90;99.90
10278;DHT22;5184;51.376;7.148;2023-07-20T04:12:10;14.80;99.90
10278;DHT22;5184;51.376;7.148;2023-07-20T04:14:36;14.90;99.90
10278;DHT22;5184;51.376;7.148;2023-07-20T04:17:03;14.80;99.90
10278;DHT22;5184;51.376;7.148;2023-07-20T04:19:30;14.90;99.90
10278;DHT22;5184;51.376;7.148;2023-07-20T04:21:57;14.80;99.90
10278;DHT22;5184;51.376;7.148;2023-07-20T04:24:24;14.80;99.90
10278;DHT22;5184;51.376;7.148;2023-07-20T04:26:51;14.80;99.90
10278;DHT22;5184;51.376;7.148;2023-07-20T04:29:17;14.90;99.90
10278;DHT22;5184;51.376;7.148;2023-07-20T04:31:44;14.90;99.90
10278;DHT22;5184;51.376;7.148;2023-07-20T04:34:11;14.90;99.90
10278;DHT22;5184;51.376;7.148;2023-07-20T04:36:38;14.90;99.90
10278;DHT22;5184;51.376;7.148;2023-07-20T04:39:05;14.90;99.90
10278;DHT22;5184;51.376;7.148;2023-07-20T04:41:31;15.00;99.90
10278;DHT22;5184;51.376;7.148;2023-07-20T04:43:59;15.10;99.90
10278;DHT22;5184;51.376;7.148;2023-07-20T04:46:26;15.10;99.90
10278;DHT22;5184;51.376;7.148;2023-07-20T04:48:53;15.10;99.90
10278;DHT22;5184;51.376;7.148;2023-07-20T04:51:19;15.10;99.90
10278;DHT22;5184;51.376;7.148;2023-07-20T04:53:46;15.10;99.90
10278;DHT22;5184;51.376;7.148;2023-07-20T04:56:13;15.00;99.90
10278;DHT22;5184;51.376;7.148;2023-07-20T04:58:41;15.00;99.90
10278;DHT22;5184;51.376;7.148;2023-07-20T05:01:08;14.90;99.90
10278;DHT22;5184;51.376;7.148;2023-07-20T05:03:34;14.90;99.90
10278;DHT22;5184;51.376;7.148;2023-07-20T05:06:01;14.90;99.90
10278;DHT22;5184;51.376;7.148;2023-07-20T05:08:28;15.10;99.90
10278;DHT22;5184;51.376;7.148;2023-07-20T05:10:55;15.20;99.90
10278;DHT22;5184;51.376;7.148;2023-07-20T05:13:23;15.20;99.90
10278;DHT22;5184;51.376;7.148;2023-07-20T05:15:52;15.20;99.90
10278;DHT22;5184;51.376;7.148;2023-07-20T05:18:19;15.30;99.90
10278;DHT22;5184;51.376;7.148;2023-07-20T05:20:46;15.30;99.90
10278;DHT22;5184;51.376;7.148;2023-07-20T05:23:13;15.40;99.90
10278;DHT22;5184;51.376;7.148;2023-07-20T05:25:40;15.40;99.90
10278;DHT22;5184;51.376;7.148;2023-07-20T05:28:06;15.40;99.90
10278;DHT22;5184;51.376;7.148;2023-07-20T05:30:33;15.40;99.90
10278;DHT22;5184;51.376;7.148;2023-07-20T05:33:00;15.50;99.90
10278;DHT22;5184;51.376;7.148;2023-07-20T05:35:28;15.50;99.90
10278;DHT22;5184;51.376;7.148;2023-07-20T05:37:54;15.50;99.90
10278;DHT22;5184;51.376;7.148;2023-07-20T05:40:21;15.50;99.90
10278;DHT22;5184;51.376;7.148;2023-07-20T05:42:48;15.60;99.90
10278;DHT22;5184;51.376;7.148;2023-07-20T05:45:14;15.60;99.90
10278;DHT22;5184;51.376;7.148;2023-07-20T05:47:42;15.50;99.90
10278;DHT22;5184;51.376;7.148;2023-07-20T05:50:09;15.40;99.90
10278;DHT22;5184;51.376;7.148;2023-07-20T05:52:36;15.40;99.90
10278;DHT22;5184;51.376;7.148;2023-07-20T05:55:02;15.40;99.90
10278;DHT22;5184;51.376;7.148;2023-07-20T05:57:29;15.50;99.90
10278;DHT22;5184;51.376;7.148;2023-07-20T05:59:55;15.50;99.90
10278;DHT22;5184;51.376;7.148;2023-07-20T06:02:22;15.60;99.90
10278;DHT22;5184;51.376;7.148;2023-07-20T06:04:48;15.70;99.90
10278;DHT22;5184;51.376;7.148;2023-07-20T06:07:15;14.00;99.90
10278;DHT22;5184;51.376;7.148;2023-07-20T06:09:42;15.90;99.90
10278;DHT22;5184;51.376;7.148;2023-07-20T06:12:09;15.90;99.90
10278;DHT22;5184;51.376;7.148;2023-07-20T06:14:36;16.00;99.90
10278;DHT22;5184;51.376;7.148;2023-07-20T06:17:02;16.00;99.90
10278;DHT22;5184;51.376;7.148;2023-07-20T06:19:29;16.00;99.90
10278;DHT22;5184;51.376;7.148;2023-07-20T06:21:55;16.00;99.90
10278;DHT22;5184;51.376;7.148;2023-07-20T06:24:23;16.00;99.90
10278;DHT22;5184;51.376;7.148;2023-07-20T06:26:49;16.10;99.90
10278;DHT22;5184;51.376;7.148;2023-07-20T06:29:16;16.20;99.90
10278;DHT22;5184;51.376;7.148;2023-07-20T06:31:43;16.20;99.90
10278;DHT22;5184;51.376;7.148;2023-07-20T06:34:09;16.30;99.90
10278;DHT22;5184;51.376;7.148;2023-07-20T06:36:37;16.40;99.90
10278;DHT22;5184;51.376;7.148;2023-07-20T06:39:04;16.50;99.90
10278;DHT22;5184;51.376;7.148;2023-07-20T06:41:31;16.50;99.90
10278;DHT22;5184;51.376;7.148;2023-07-20T06:43:57;16.40;99.90
10278;DHT22;5184;51.376;7.148;2023-07-20T06:46:25;16.40;98.80
10278;DHT22;5184;51.376;7.148;2023-07-20T06:48:51;16.30;1.00
10278;DHT22;5184;51.376;7.148;2023-07-20T06:51:19;16.40;32.70
10278;DHT22;5184;51.376;7.148;2023-07-20T06:53:45;16.30;35.80
10278;DHT22;5184;51.376;7.148;2023-07-20T06:56:12;16.30;1.00
10278;DHT22;5184;51.376;7.148;2023-07-20T06:58:38;16.30;1.00
10278;DHT22;5184;51.376;7.148;2023-07-20T07:01:06;16.20;47.50
10278;DHT22;5184;51.376;7.148;2023-07-20T07:03:33;16.30;1.00
10278;DHT22;5184;51.376;7.148;2023-07-20T07:06:00;16.30;1.00
10278;DHT22;5184;51.376;7.148;2023-07-20T07:08:26;16.30;1.00
10278;DHT22;5184;51.376;7.148;2023-07-20T07:10:53;16.30;1.00
10278;DHT22;5184;51.376;7.148;2023-07-20T07:13:19;16.20;1.00
10278;DHT22;5184;51.376;7.148;2023-07-20T07:15:46;16.00;1.00
10278;DHT22;5184;51.376;7.148;2023-07-20T07:18:13;15.90;1.00
10278;DHT22;5184;51.376;7.148;2023-07-20T07:20:41;15.90;90.70
10278;DHT22;5184;51.376;7.148;2023-07-20T07:23:07;15.80;91.20
10278;DHT22;5184;51.376;7.148;2023-07-20T07:25:34;15.80;99.90
10278;DHT22;5184;51.376;7.148;2023-07-20T07:28:00;15.80;99.90
10278;DHT22;5184;51.376;7.148;2023-07-20T07:30:28;15.80;58.80
10278;DHT22;5184;51.376;7.148;2023-07-20T07:32:54;15.80;61.00
10278;DHT22;5184;51.376;7.148;2023-07-20T07:35:21;15.90;82.40
10278;DHT22;5184;51.376;7.148;2023-07-20T07:37:48;15.90;46.40
10278;DHT22;5184;51.376;7.148;2023-07-20T07:40:14;16.10;35.40
10278;DHT22;5184;51.376;7.148;2023-07-20T07:42:41;16.30;1.00
10278;DHT22;5184;51.376;7.148;2023-07-20T07:45:08;16.40;1.00
10278;DHT22;5184;51.376;7.148;2023-07-20T07:47:34;16.60;99.90
10278;DHT22;5184;51.376;7.148;2023-07-20T07:50:01;16.80;1.00
10278;DHT22;5184;51.376;7.148;2023-07-20T07:52:28;16.80;1.00
10278;DHT22;5184;51.376;7.148;2023-07-20T07:54:55;17.10;1.00
10278;DHT22;5184;51.376;7.148;2023-07-20T07:57:21;17.10;1.00
10278;DHT22;5184;51.376;7.148;2023-07-20T07:59:48;17.20;1.00
10278;DHT22;5184;51.376;7.148;2023-07-20T08:02:15;17.10;99.90
10278;DHT22;5184;51.376;7.148;2023-07-20T08:04:42;17.10;1.00
10278;DHT22;5184;51.376;7.148;2023-07-20T08:07:09;17.20;1.00
10278;DHT22;5184;51.376;7.148;2023-07-20T08:09:37;17.20;99.90
10278;DHT22;5184;51.376;7.148;2023-07-20T08:12:04;17.20;99.90
10278;DHT22;5184;51.376;7.148;2023-07-20T08:14:30;17.30;99.90
10278;DHT22;5184;51.376;7.148;2023-07-20T08:16:57;17.40;99.90
10278;DHT22;5184;51.376;7.148;2023-07-20T08:19:24;16.60;99.90
10278;DHT22;5184;51.376;7.148;2023-07-20T08:21:51;17.80;1.00
10278;DHT22;5184;51.376;7.148;2023-07-20T08:24:18;17.80;99.90
10278;DHT22;5184;51.376;7.148;2023-07-20T08:26:45;17.80;99.90
10278;DHT22;5184;51.376;7.148;2023-07-20T08:29:12;17.70;1.00
10278;DHT22;5184;51.376;7.148;2023-07-20T08:31:39;17.60;99.90
10278;DHT22;5184;51.376;7.148;2023-07-20T08:34:05;17.20;1.00
10278;DHT22;5184;51.376;7.148;2023-07-20T08:36:33;17.20;1.00
10278;DHT22;5184;51.376;7.148;2023-07-20T08:39:00;17.20;99.90
10278;DHT22;5184;51.376;7.148;2023-07-20T08:41:27;17.20;99.90
10278;DHT22;5184;51.376;7.148;2023-07-20T08:43:53;17.20;1.00
10278;DHT22;5184;51.376;7.148;2023-07-20T08:46:20;17.40;1.00
10278;DHT22;5184;51.376;7.148;2023-07-20T08:48:47;17.70;9.20
10278;DHT22;5184;51.376;7.148;2023-07-20T08:51:15;17.90;99.90
10278;DHT22;5184;51.376;7.148;2023-07-20T08:53:41;17.90;99.90
10278;DHT22;5184;51.376;7.148;2023-07-20T08:56:08;18.10;1.00
10278;DHT22;5184;51.376;7.148;2023-07-20T08:58:34;18.10;99.90
10278;DHT22;5184;51.376;7.148;2023-07-20T09:01:01;18.20;99.90
10278;DHT22;5184;51.376;7.148;2023-07-20T09:03:28;18.40;1.00
10278;DHT22;5184;51.376;7.148;2023-07-20T09:05:55;18.40;1.00
10278;DHT22;5184;51.376;7.148;2023-07-20T09:08:22;18.20;1.00
10278;DHT22;5184;51.376;7.148;2023-07-20T09:10:50;18.10;1.00
10278;DHT22;5184;51.376;7.148;2023-07-20T09:13:17;18.20;12.70
10278;DHT22;5184;51.376;7.148;2023-07-20T09:15:46;18.10;99.90
10278;DHT22;5184;51.376;7.148;2023-07-20T09:18:14;18.00;2.70
10278;DHT22;5184;51.376;7.148;2023-07-20T09:20:40;18.00;1.00
10278;DHT22;5184;51.376;7.148;2023-07-20T09:23:06;17.90;1.00
10278;DHT22;5184;51.376;7.148;2023-07-20T09:25:33;18.00;21.10
10278;DHT22;5184;51.376;7.148;2023-07-20T09:28:02;17.90;99.90
10278;DHT22;5184;51.376;7.148;2023-07-20T09:30:26;18.00;1.00
10278;DHT22;5184;51.376;7.148;2023-07-20T09:32:53;18.10;1.00
10278;DHT22;5184;51.376;7.148;2023-07-20T09:35:20;18.50;1.00
10278;DHT22;5184;51.376;7.148;2023-07-20T09:37:47;19.90;64.70
10278;DHT22;5184;51.376;7.148;2023-07-20T09:40:15;18.90;99.90
10278;DHT22;5184;51.376;7.148;2023-07-20T09:42:41;18.90;99.90
10278;DHT22;5184;51.376;7.148;2023-07-20T09:45:08;18.90;1.00
10278;DHT22;5184;51.376;7.148;2023-07-20T09:47:36;18.80;77.60
10278;DHT22;5184;51.376;7.148;2023-07-20T09:50:02;18.90;1.00
10278;DHT22;5184;51.376;7.148;2023-07-20T09:52:29;19.00;1.00
10278;DHT22;5184;51.376;7.148;2023-07-20T09:54:55;19.10;1.00
10278;DHT22;5184;51.376;7.148;2023-07-20T09:57:22;19.30;1.00
10278;DHT22;5184;51.376;7.148;2023-07-20T09:59:49;19.30;99.90
10278;DHT22;5184;51.376;7.148;2023-07-20T10:02:25;19.20;1.00
10278;DHT22;5184;51.376;7.148;2023-07-20T10:04:48;19.20;1.00
10278;DHT22;5184;51.376;7.148;2023-07-20T10:07:14;19.30;99.90
10278;DHT22;5184;51.376;7.148;2023-07-20T10:09:41;19.30;99.90
10278;DHT22;5184;51.376;7.148;2023-07-20T10:12:08;19.40;99.90
10278;DHT22;5184;51.376;7.148;2023-07-20T10:14:35;19.40;99.90
10278;DHT22;5184;51.376;7.148;2023-07-20T10:17:02;19.70;1.00
10278;DHT22;5184;51.376;7.148;2023-07-20T10:19:34;19.90;99.90
10278;DHT22;5184;51.376;7.148;2023-07-20T10:22:02;19.90;99.90
10278;DHT22;5184;51.376;7.148;2023-07-20T10:24:27;19.90;99.90
10278;DHT22;5184;51.376;7.148;2023-07-20T10:26:55;20.00;99.90
10278;DHT22;5184;51.376;7.148;2023-07-20T10:29:22;20.10;1.00
10278;DHT22;5184;51.376;7.148;2023-07-20T10:31:49;20.30;1.00
10278;DHT22;5184;51.376;7.148;2023-07-20T10:34:16;20.50;99.90
10278;DHT22;5184;51.376;7.148;2023-07-20T10:36:44;20.40;99.90
10278;DHT22;5184;51.376;7.148;2023-07-20T10:39:21;20.50;99.90
10278;DHT22;5184;51.376;7.148;2023-07-20T10:41:40;20.50;99.90
10278;DHT22;5184;51.376;7.148;2023-07-20T10:44:07;20.40;99.90
10278;DHT22;5184;51.376;7.148;2023-07-20T10:46:34;20.30;1.00
10278;DHT22;5184;51.376;7.148;2023-07-20T10:49:02;20.20;99.90
10278;DHT22;5184;51.376;7.148;2023-07-20T10:51:28;20.20;99.90
10278;DHT22;5184;51.376;7.148;2023-07-20T10:53:57;20.20;1.00
10278;DHT22;5184;51.376;7.148;2023-07-20T10:56:26;20.20;99.70
10278;DHT22;5184;51.376;7.148;2023-07-20T10:58:55;20.10;99.90
10278;DHT22;5184;51.376;7.148;2023-07-20T11:01:18;20.30;99.90
10278;DHT22;5184;51.376;7.148;2023-07-20T11:03:49;20.40;99.90
10278;DHT22;5184;51.376;7.148;2023-07-20T11:06:31;20.30;99.90
10278;DHT22;5184;51.376;7.148;2023-07-20T11:09:06;20.40;99.90
10278;DHT22;5184;51.376;7.148;2023-07-20T11:11:34;20.70;99.90
10278;DHT22;5184;51.376;7.148;2023-07-20T11:14:01;20.90;99.90
10278;DHT22;5184;51.376;7.148;2023-07-20T11:16:36;20.90;99.90
10278;DHT22;5184;51.376;7.148;2023-07-20T11:19:02;20.90;99.90
10278;DHT22;5184;51.376;7.148;2023-07-20T11:21:29;21.10;99.90
10278;DHT22;5184;51.376;7.148;2023-07-20T11:23:55;20.90;13.50
10278;DHT22;5184;51.376;7.148;2023-07-20T11:26:22;20.70;99.90
10278;DHT22;5184;51.376;7.148;2023-07-20T11:28:50;20.80;20.90
10278;DHT22;5184;51.376;7.148;2023-07-20T11:31:17;20.90;1.00
10278;DHT22;5184;51.376;7.148;2023-07-20T11:33:44;21.00;1.00
10278;DHT22;5184;51.376;7.148;2023-07-20T11:36:12;21.00;99.90
10278;DHT22;5184;51.376;7.148;2023-07-20T11:38:40;21.00;99.90
10278;DHT22;5184;51.376;7.148;2023-07-20T11:41:05;21.00;1.00
10278;DHT22;5184;51.376;7.148;2023-07-20T11:43:31;21.10;1.00
10278;DHT22;5184;51.376;7.148;2023-07-20T11:45:59;21.20;1.00
10278;DHT22;5184;51.376;7.148;2023-07-20T11:48:25;21.40;1.00
10278;DHT22;5184;51.376;7.148;2023-07-20T11:50:52;21.60;1.00
10278;DHT22;5184;51.376;7.148;2023-07-20T11:53:18;21.70;1.00
10278;DHT22;5184;51.376;7.148;2023-07-20T11:55:45;21.80;1.00
10278;DHT22;5184;51.376;7.148;2023-07-20T11:58:12;22.10;1.00
10278;DHT22;5184;51.376;7.148;2023-07-20T12:00:39;22.00;99.90
10278;DHT22;5184;51.376;7.148;2023-07-20T12:03:06;21.90;99.90
10278;DHT22;5184;51.376;7.148;2023-07-20T12:05:34;22.00;1.00
10278;DHT22;5184;51.376;7.148;2023-07-20T12:08:01;22.00;99.90
10278;DHT22;5184;51.376;7.148;2023-07-20T12:10:28;22.00;99.90
10278;DHT22;5184;51.376;7.148;2023-07-20T12:12:54;21.80;1.00
10278;DHT22;5184;51.376;7.148;2023-07-20T12:15:24;22.00;1.00
10278;DHT22;5184;51.376;7.148;2023-07-20T12:17:50;22.00;99.90
10278;DHT22;5184;51.376;7.148;2023-07-20T12:20:25;22.00;99.90
10278;DHT22;5184;51.376;7.148;2023-07-20T12:22:51;22.00;99.90
10278;DHT22;5184;51.376;7.148;2023-07-20T12:25:18;22.10;99.90
10278;DHT22;5184;51.376;7.148;2023-07-20T12:27:44;22.20;99.90
10278;DHT22;5184;51.376;7.148;2023-07-20T12:30:11;22.30;99.90
10278;DHT22;5184;51.376;7.148;2023-07-20T12:32:37;22.40;99.90
10278;DHT22;5184;51.376;7.148;2023-07-20T12:35:04;22.20;99.90
10278;DHT22;5184;51.376;7.148;2023-07-20T12:37:31;22.10;99.90
10278;DHT22;5184;51.376;7.148;2023-07-20T12:39:58;22.00;99.90
10278;DHT22;5184;51.376;7.148;2023-07-20T12:42:26;21.90;1.00
10278;DHT22;5184;51.376;7.148;2023-07-20T12:44:52;21.90;1.00
10278;DHT22;5184;51.376;7.148;2023-07-20T12:47:19;22.00;99.90
10278;DHT22;5184;51.376;7.148;2023-07-20T12:49:46;22.20;99.90
10278;DHT22;5184;51.376;7.148;2023-07-20T12:52:12;22.20;99.90
10278;DHT22;5184;51.376;7.148;2023-07-20T12:54:39;22.20;99.90
10278;DHT22;5184;51.376;7.148;2023-07-20T12:57:06;22.90;99.90
10278;DHT22;5184;51.376;7.148;2023-07-20T12:59:34;23.20;99.90
10278;DHT22;5184;51.376;7.148;2023-07-20T13:02:00;23.10;99.90
10278;DHT22;5184;51.376;7.148;2023-07-20T13:04:27;22.90;99.90
10278;DHT22;5184;51.376;7.148;2023-07-20T13:06:53;22.60;99.90
10278;DHT22;5184;51.376;7.148;2023-07-20T13:09:20;22.30;99.90
10278;DHT22;5184;51.376;7.148;2023-07-20T13:11:47;22.10;99.90
10278;DHT22;5184;51.376;7.148;2023-07-20T13:14:15;21.70;99.90
10278;DHT22;5184;51.376;7.148;2023-07-20T13:16:42;21.70;99.90
10278;DHT22;5184;51.376;7.148;2023-07-20T13:19:09;21.70;99.90
10278;DHT22;5184;51.376;7.148;2023-07-20T13:21:36;21.60;99.90
10278;DHT22;5184;51.376;7.148;2023-07-20T13:24:03;21.50;99.90
10278;DHT22;5184;51.376;7.148;2023-07-20T13:26:31;21.60;1.00
10278;DHT22;5184;51.376;7.148;2023-07-20T13:28:59;21.50;99.90
10278;DHT22;5184;51.376;7.148;2023-07-20T13:31:27;21.50;99.90
10278;DHT22;5184;51.376;7.148;2023-07-20T13:33:53;21.50;99.90
10278;DHT22;5184;51.376;7.148;2023-07-20T13:36:20;21.40;1.00
10278;DHT22;5184;51.376;7.148;2023-07-20T13:38:47;21.40;99.90
10278;DHT22;5184;51.376;7.148;2023-07-20T13:41:15;21.30;99.90
10278;DHT22;5184;51.376;7.148;2023-07-20T13:43:41;21.30;99.90
10278;DHT22;5184;51.376;7.148;2023-07-20T13:46:08;21.50;1.00
10278;DHT22;5184;51.376;7.148;2023-07-20T13:48:34;21.50;99.90
10278;DHT22;5184;51.376;7.148;2023-07-20T13:51:01;21.60;1.00
10278;DHT22;5184;51.376;7.148;2023-07-20T13:53:27;21.90;99.90
10278;DHT22;5184;51.376;7.148;2023-07-20T13:55:55;22.40;99.90
10278;DHT22;5184;51.376;7.148;2023-07-20T13:58:22;22.30;99.90
10278;DHT22;5184;51.376;7.148;2023-07-20T14:00:50;22.20;99.90
10278;DHT22;5184;51.376;7.148;2023-07-20T14:03:16;22.10;99.90
10278;DHT22;5184;51.376;7.148;2023-07-20T14:05:43;22.10;99.90
10278;DHT22;5184;51.376;7.148;2023-07-20T14:08:09;22.30;99.90
10278;DHT22;5184;51.376;7.148;2023-07-20T14:10:36;22.50;99.90
10278;DHT22;5184;51.376;7.148;2023-07-20T14:13:03;22.30;99.90
10278;DHT22;5184;51.376;7.148;2023-07-20T14:15:31;22.40;99.90
10278;DHT22;5184;51.376;7.148;2023-07-20T14:17:57;22.40;99.90
10278;DHT22;5184;51.376;7.148;2023-07-20T14:20:24;22.60;99.90
10278;DHT22;5184;51.376;7.148;2023-07-20T14:22:50;22.80;99.90
10278;DHT22;5184;51.376;7.148;2023-07-20T14:25:17;22.80;99.90
10278;DHT22;5184;51.376;7.148;2023-07-20T14:27:44;22.60;99.90
10278;DHT22;5184;51.376;7.148;2023-07-20T14:30:11;22.60;99.90
10278;DHT22;5184;51.376;7.148;2023-07-20T14:32:38;23.10;99.90
10278;DHT22;5184;51.376;7.148;2023-07-20T14:35:06;23.00;99.90
10278;DHT22;5184;51.376;7.148;2023-07-20T14:37:34;23.10;99.90
10278;DHT22;5184;51.376;7.148;2023-07-20T14:40:00;23.10;99.90
10278;DHT22;5184;51.376;7.148;2023-07-20T14:42:27;23.20;99.90
10278;DHT22;5184;51.376;7.148;2023-07-20T14:44:53;23.20;99.90
10278;DHT22;5184;51.376;7.148;2023-07-20T14:47:20;23.30;99.90
10278;DHT22;5184;51.376;7.148;2023-07-20T14:49:47;23.20;99.90
10278;DHT22;5184;51.376;7.148;2023-07-20T14:52:14;23.20;99.90
10278;DHT22;5184;51.376;7.148;2023-07-20T14:54:41;23.10;99.90
10278;DHT22;5184;51.376;7.148;2023-07-20T14:57:07;23.20;99.90
10278;DHT22;5184;51.376;7.148;2023-07-20T14:59:34;23.10;99.90
10278;DHT22;5184;51.376;7.148;2023-07-20T15:02:00;23.00;99.90
10278;DHT22;5184;51.376;7.148;2023-07-20T15:04:27;23.20;99.90
10278;DHT22;5184;51.376;7.148;2023-07-20T15:06:54;23.80;99.90
10278;DHT22;5184;51.376;7.148;2023-07-20T15:09:22;24.00;99.90
10278;DHT22;5184;51.376;7.148;2023-07-20T15:11:49;24.00;99.90
10278;DHT22;5184;51.376;7.148;2023-07-20T15:14:16;24.00;99.90
10278;DHT22;5184;51.376;7.148;2023-07-20T15:16:42;24.00;99.90
10278;DHT22;5184;51.376;7.148;2023-07-20T15:19:09;24.40;99.90
10278;DHT22;5184;51.376;7.148;2023-07-20T15:21:36;24.50;99.90
10278;DHT22;5184;51.376;7.148;2023-07-20T15:24:04;24.70;99.90
10278;DHT22;5184;51.376;7.148;2023-07-20T15:26:30;24.70;99.90
10278;DHT22;5184;51.376;7.148;2023-07-20T15:28:57;25.00;99.90
10278;DHT22;5184;51.376;7.148;2023-07-20T15:31:24;23.70;99.90
10278;DHT22;5184;51.376;7.148;2023-07-20T15:33:51;25.30;99.90
10278;DHT22;5184;51.376;7.148;2023-07-20T15:36:17;25.30;99.90
10278;DHT22;5184;51.376;7.148;2023-07-20T15:38:44;25.00;99.90
10278;DHT22;5184;51.376;7.148;2023-07-20T15:41:11;24.90;99.90
10278;DHT22;5184;51.376;7.148;2023-07-20T15:43:37;24.50;99.90
10278;DHT22;5184;51.376;7.148;2023-07-20T15:49:03;23.80;99.90
10278;DHT22;5184;51.376;7.148;2023-07-20T15:51:31;23.70;99.90
10278;DHT22;5184;51.376;7.148;2023-07-20T15:53:57;23.50;99.90
10278;DHT22;5184;51.376;7.148;2023-07-20T15:56:25;23.40;99.90